sensor_id;sensor_type;location;lat;lon;timestamp;P1;durP1;ratioP1;P2;durP2;ratioP2
14799;SDS011;7491;57.750;11.970;2023-07-31T00:00:15;8.93;;;2.90;;
14799;SDS011;7491;57.750;11.970;2023-07-31T00:02:41;6.07;;;2.22;;
14799;SDS011;7491;57.750;11.970;2023-07-31T00:05:08;6.32;;;2.60;;
14799;SDS011;7491;57.750;11.970;2023-07-31T00:07:35;6.85;;;2.60;;
14799;SDS011;7491;57.750;11.970;2023-07-31T00:10:02;5.43;;;2.40;;
14799;SDS011;7491;57.750;11.970;2023-07-31T00:12:30;5.22;;;2.60;;
14799;SDS011;7491;57.750;11.970;2023-07-31T00:14:57;5.70;;;2.40;;
14799;SDS011;7491;57.750;11.970;2023-07-31T00:17:24;5.40;;;3.05;;
14799;SDS011;7491;57.750;11.970;2023-07-31T00:19:51;8.80;;;2.47;;
14799;SDS011;7491;57.750;11.970;2023-07-31T00:22:18;3.03;;;2.40;;
14799;SDS011;7491;57.750;11.970;2023-07-31T00:24:44;5.70;;;3.08;;
14799;SDS011;7491;57.750;11.970;2023-07-31T00:27:11;3.97;;;2.33;;
14799;SDS011;7491;57.750;11.970;2023-07-31T00:29:39;6.43;;;2.53;;
14799;SDS011;7491;57.750;11.970;2023-07-31T00:32:06;6.18;;;2.45;;
14799;SDS011;7491;57.750;11.970;2023-07-31T00:34:33;4.68;;;2.53;;
14799;SDS011;7491;57.750;11.970;2023-07-31T00:37:00;4.70;;;2.65;;
14799;SDS011;7491;57.750;11.970;2023-07-31T00:39:27;5.28;;;2.22;;
14799;SDS011;7491;57.750;11.970;2023-07-31T00:41:53;3.75;;;2.17;;
14799;SDS011;7491;57.750;11.970;2023-07-31T00:44:20;2.60;;;2.22;;
14799;SDS011;7491;57.750;11.970;2023-07-31T00:46:48;4.78;;;2.40;;
14799;SDS011;7491;57.750;11.970;2023-07-31T00:49:15;5.05;;;2.08;;
14799;SDS011;7491;57.750;11.970;2023-07-31T00:51:42;7.78;;;2.40;;
14799;SDS011;7491;57.750;11.970;2023-07-31T00:54:09;5.55;;;2.10;;
14799;SDS011;7491;57.750;11.970;2023-07-31T00:56:37;3.85;;;2.05;;
14799;SDS011;7491;57.750;11.970;2023-07-31T00:59:04;4.60;;;2.40;;
14799;SDS011;7491;57.750;11.970;2023-07-31T01:01:31;4.75;;;2.22;;
14799;SDS011;7491;57.750;11.970;2023-07-31T01:03:59;6.07;;;2.20;;
14799;SDS011;7491;57.750;11.970;2023-07-31T01:06:27;4.78;;;2.03;;
14799;SDS011;7491;57.750;11.970;2023-07-31T01:09:01;3.75;;;2.30;;
14799;SDS011;7491;57.750;11.970;2023-07-31T01:11:30;3.13;;;1.70;;
14799;SDS011;7491;57.750;11.970;2023-07-31T01:13:59;3.33;;;2.13;;
14799;SDS011;7491;57.750;11.970;2023-07-31T01:16:26;3.85;;;2.03;;
14799;SDS011;7491;57.750;11.970;2023-07-31T01:18:53;4.32;;;1.90;;
14799;SDS011;7491;57.750;11.970;2023-07-31T01:21:28;3.03;;;2.05;;
14799;SDS011;7491;57.750;11.970;2023-07-31T01:24:10;5.38;;;2.08;;
14799;SDS011;7491;57.750;11.970;2023-07-31T01:26:49;3.83;;;1.90;;
14799;SDS011;7491;57.750;11.970;2023-07-31T01:29:23;5.85;;;1.95;;
14799;SDS011;7491;57.750;11.970;2023-07-31T01:31:55;5.78;;;2.15;;
14799;SDS011;7491;57.750;11.970;2023-07-31T01:34:26;4.90;;;1.95;;
14799;SDS011;7491;57.750;11.970;2023-07-31T01:36:53;4.30;;;2.10;;
14799;SDS011;7491;57.750;11.970;2023-07-31T01:39:21;3.78;;;1.98;;
14799;SDS011;7491;57.750;11.970;2023-07-31T01:41:49;7.00;;;2.35;;
14799;SDS011;7491;57.750;11.970;2023-07-31T01:44:16;5.53;;;2.25;;
14799;SDS011;7491;57.750;11.970;2023-07-31T01:46:43;3.78;;;2.65;;
14799;SDS011;7491;57.750;11.970;2023-07-31T01:49:10;5.53;;;1.83;;
14799;SDS011;7491;57.750;11.970;2023-07-31T01:51:36;3.92;;;2.17;;
14799;SDS011;7491;57.750;11.970;2023-07-31T01:54:03;3.17;;;1.90;;
14799;SDS011;7491;57.750;11.970;2023-07-31T01:56:30;4.50;;;2.00;;
14799;SDS011;7491;57.750;11.970;2023-07-31T01:58:58;3.42;;;2.10;;
14799;SDS011;7491;57.750;11.970;2023-07-31T02:01:25;2.95;;;2.28;;
14799;SDS011;7491;57.750;11.970;2023-07-31T02:03:51;5.72;;;2.28;;
14799;SDS011;7491;57.750;11.970;2023-07-31T02:06:19;5.57;;;2.30;;
14799;SDS011;7491;57.750;11.970;2023-07-31T02:08:45;5.82;;;2.30;;
14799;SDS011;7491;57.750;11.970;2023-07-31T02:11:12;5.55;;;2.70;;
14799;SDS011;7491;57.750;11.970;2023-07-31T02:13:39;5.53;;;1.85;;
14799;SDS011;7491;57.750;11.970;2023-07-31T02:16:07;3.25;;;2.03;;
14799;SDS011;7491;57.750;11.970;2023-07-31T02:18:34;7.80;;;2.25;;
14799;SDS011;7491;57.750;11.970;2023-07-31T02:21:00;4.80;;;2.10;;
14799;SDS011;7491;57.750;11.970;2023-07-31T02:23:27;4.72;;;2.38;;
14799;SDS011;7491;57.750;11.970;2023-07-31T02:25:54;4.10;;;2.08;;
14799;SDS011;7491;57.750;11.970;2023-07-31T02:28:20;8.25;;;2.65;;
14799;SDS011;7491;57.750;11.970;2023-07-31T02:30:47;2.72;;;2.35;;
14799;SDS011;7491;57.750;11.970;2023-07-31T02:33:17;7.68;;;2.67;;
14799;SDS011;7491;57.750;11.970;2023-07-31T02:35:44;2.95;;;2.20;;
14799;SDS011;7491;57.750;11.970;2023-07-31T02:38:11;4.18;;;2.40;;
14799;SDS011;7491;57.750;11.970;2023-07-31T02:40:38;4.43;;;2.33;;
14799;SDS011;7491;57.750;11.970;2023-07-31T02:43:06;5.43;;;2.20;;
14799;SDS011;7491;57.750;11.970;2023-07-31T02:45:32;2.85;;;2.17;;
14799;SDS011;7491;57.750;11.970;2023-07-31T02:47:59;3.60;;;2.17;;
14799;SDS011;7491;57.750;11.970;2023-07-31T02:50:27;4.40;;;2.53;;
14799;SDS011;7491;57.750;11.970;2023-07-31T02:52:54;5.95;;;2.30;;
14799;SDS011;7491;57.750;11.970;2023-07-31T02:55:21;5.22;;;2.30;;
14799;SDS011;7491;57.750;11.970;2023-07-31T02:57:47;4.32;;;2.40;;
14799;SDS011;7491;57.750;11.970;2023-07-31T03:00:14;5.80;;;2.78;;
14799;SDS011;7491;57.750;11.970;2023-07-31T03:02:41;4.45;;;2.80;;
14799;SDS011;7491;57.750;11.970;2023-07-31T03:05:08;3.40;;;2.45;;
14799;SDS011;7491;57.750;11.970;2023-07-31T03:07:36;3.75;;;2.75;;
14799;SDS011;7491;57.750;11.970;2023-07-31T03:10:03;4.07;;;2.40;;
14799;SDS011;7491;57.750;11.970;2023-07-31T03:12:30;6.70;;;2.88;;
14799;SDS011;7491;57.750;11.970;2023-07-31T03:14:57;5.20;;;2.40;;
14799;SDS011;7491;57.750;11.970;2023-07-31T03:17:23;4.03;;;2.78;;
14799;SDS011;7491;57.750;11.970;2023-07-31T03:19:50;6.25;;;2.70;;
14799;SDS011;7491;57.750;11.970;2023-07-31T03:22:17;6.63;;;2.67;;
14799;SDS011;7491;57.750;11.970;2023-07-31T03:24:45;5.03;;;2.65;;
14799;SDS011;7491;57.750;11.970;2023-07-31T03:27:11;3.97;;;2.70;;
14799;SDS011;7491;57.750;11.970;2023-07-31T03:29:38;4.13;;;3.17;;
14799;SDS011;7491;57.750;11.970;2023-07-31T03:32:05;2.85;;;2.50;;
14799;SDS011;7491;57.750;11.970;2023-07-31T03:34:32;3.88;;;2.47;;
14799;SDS011;7491;57.750;11.970;2023-07-31T03:36:59;4.07;;;3.00;;
14799;SDS011;7491;57.750;11.970;2023-07-31T03:39:26;4.65;;;2.72;;
14799;SDS011;7491;57.750;11.970;2023-07-31T03:41:54;4.25;;;3.03;;
14799;SDS011;7491;57.750;11.970;2023-07-31T03:44:21;3.63;;;3.28;;
14799;SDS011;7491;57.750;11.970;2023-07-31T03:46:47;5.20;;;3.33;;
14799;SDS011;7491;57.750;11.970;2023-07-31T03:49:14;7.78;;;4.22;;
14799;SDS011;7491;57.750;11.970;2023-07-31T03:51:41;4.88;;;3.65;;
14799;SDS011;7491;57.750;11.970;2023-07-31T03:54:08;6.60;;;4.75;;
14799;SDS011;7491;57.750;11.970;2023-07-31T03:56:35;7.15;;;5.00;;
14799;SDS011;7491;57.750;11.970;2023-07-31T03:59:04;8.15;;;3.97;;
14799;SDS011;7491;57.750;11.970;2023-07-31T04:01:31;5.15;;;4.53;;
14799;SDS011;7491;57.750;11.970;2023-07-31T04:03:58;8.75;;;4.15;;
14799;SDS011;7491;57.750;11.970;2023-07-31T04:06:27;6.15;;;4.57;;
14799;SDS011;7491;57.750;11.970;2023-07-31T04:08:54;7.68;;;4.47;;
14799;SDS011;7491;57.750;11.970;2023-07-31T04:11:21;6.32;;;3.88;;
14799;SDS011;7491;57.750;11.970;2023-07-31T04:13:48;12.15;;;4.13;;
14799;SDS011;7491;57.750;11.970;2023-07-31T04:16:16;10.57;;;3.03;;
14799;SDS011;7491;57.750;11.970;2023-07-31T04:18:42;7.05;;;3.33;;
14799;SDS011;7491;57.750;11.970;2023-07-31T04:21:09;7.20;;;3.25;;
14799;SDS011;7491;57.750;11.970;2023-07-31T04:23:36;9.20;;;3.53;;
14799;SDS011;7491;57.750;11.970;2023-07-31T04:26:03;6.32;;;3.63;;
14799;SDS011;7491;57.750;11.970;2023-07-31T04:28:29;5.35;;;3.70;;
14799;SDS011;7491;57.750;11.970;2023-07-31T04:30:56;5.78;;;3.78;;
14799;SDS011;7491;57.750;11.970;2023-07-31T04:33:25;6.65;;;3.35;;
14799;SDS011;7491;57.750;11.970;2023-07-31T04:35:52;9.68;;;3.75;;
14799;SDS011;7491;57.750;11.970;2023-07-31T04:38:19;6.80;;;2.95;;
14799;SDS011;7491;57.750;11.970;2023-07-31T04:40:46;8.43;;;3.15;;
14799;SDS011;7491;57.750;11.970;2023-07-31T04:43:13;5.97;;;3.05;;
14799;SDS011;7491;57.750;11.970;2023-07-31T04:45:41;6.45;;;3.22;;
14799;SDS011;7491;57.750;11.970;2023-07-31T04:48:11;6.93;;;3.63;;
14799;SDS011;7491;57.750;11.970;2023-07-31T04:50:39;7.18;;;3.50;;
14799;SDS011;7491;57.750;11.970;2023-07-31T04:53:06;8.25;;;3.80;;
14799;SDS011;7491;57.750;11.970;2023-07-31T04:55:32;7.47;;;4.13;;
14799;SDS011;7491;57.750;11.970;2023-07-31T04:57:59;8.65;;;3.53;;
14799;SDS011;7491;57.750;11.970;2023-07-31T05:00:25;10.98;;;3.72;;
14799;SDS011;7491;57.750;11.970;2023-07-31T05:02:52;8.30;;;3.90;;
14799;SDS011;7491;57.750;11.970;2023-07-31T05:05:18;9.05;;;3.90;;
14799;SDS011;7491;57.750;11.970;2023-07-31T05:07:46;5.43;;;3.50;;
14799;SDS011;7491;57.750;11.970;2023-07-31T05:10:13;4.55;;;3.28;;
14799;SDS011;7491;57.750;11.970;2023-07-31T05:12:40;7.75;;;3.80;;
14799;SDS011;7491;57.750;11.970;2023-07-31T05:15:07;10.25;;;3.72;;
14799;SDS011;7491;57.750;11.970;2023-07-31T05:17:34;9.70;;;3.88;;
14799;SDS011;7491;57.750;11.970;2023-07-31T05:20:01;10.60;;;3.83;;
14799;SDS011;7491;57.750;11.970;2023-07-31T05:22:28;9.80;;;4.18;;
14799;SDS011;7491;57.750;11.970;2023-07-31T05:24:56;6.85;;;3.63;;
14799;SDS011;7491;57.750;11.970;2023-07-31T05:27:23;10.75;;;4.03;;
14799;SDS011;7491;57.750;11.970;2023-07-31T05:29:50;14.55;;;3.90;;
14799;SDS011;7491;57.750;11.970;2023-07-31T05:32:17;10.38;;;3.67;;
14799;SDS011;7491;57.750;11.970;2023-07-31T05:34:43;10.32;;;3.22;;
14799;SDS011;7491;57.750;11.970;2023-07-31T05:37:46;8.77;;;3.50;;
14799;SDS011;7491;57.750;11.970;2023-07-31T05:40:30;10.75;;;3.80;;
14799;SDS011;7491;57.750;11.970;2023-07-31T05:43:30;10.05;;;3.25;;
14799;SDS011;7491;57.750;11.970;2023-07-31T05:45:57;11.48;;;3.60;;
14799;SDS011;7491;57.750;11.970;2023-07-31T05:48:26;12.50;;;3.80;;
14799;SDS011;7491;57.750;11.970;2023-07-31T05:50:53;11.80;;;3.92;;
14799;SDS011;7491;57.750;11.970;2023-07-31T05:53:20;11.15;;;3.50;;
14799;SDS011;7491;57.750;11.970;2023-07-31T05:55:48;11.15;;;3.47;;
14799;SDS011;7491;57.750;11.970;2023-07-31T05:58:15;14.02;;;3.92;;
14799;SDS011;7491;57.750;11.970;2023-07-31T06:00:41;9.73;;;3.63;;
14799;SDS011;7491;57.750;11.970;2023-07-31T06:03:10;7.00;;;3.28;;
14799;SDS011;7491;57.750;11.970;2023-07-31T06:05:49;11.40;;;3.22;;
14799;SDS011;7491;57.750;11.970;2023-07-31T06:08:32;11.30;;;3.22;;
14799;SDS011;7491;57.750;11.970;2023-07-31T06:11:00;10.45;;;3.00;;
14799;SDS011;7491;57.750;11.970;2023-07-31T06:13:27;10.73;;;2.92;;
14799;SDS011;7491;57.750;11.970;2023-07-31T06:15:53;12.70;;;3.50;;
14799;SDS011;7491;57.750;11.970;2023-07-31T06:19:29;7.38;;;2.70;;
14799;SDS011;7491;57.750;11.970;2023-07-31T06:21:56;9.30;;;2.80;;
14799;SDS011;7491;57.750;11.970;2023-07-31T06:24:37;9.98;;;2.78;;
14799;SDS011;7491;57.750;11.970;2023-07-31T06:30:11;10.20;;;3.15;;
14799;SDS011;7491;57.750;11.970;2023-07-31T06:32:38;10.68;;;2.80;;
14799;SDS011;7491;57.750;11.970;2023-07-31T06:35:05;10.10;;;2.72;;
14799;SDS011;7491;57.750;11.970;2023-07-31T06:37:33;12.02;;;3.17;;
14799;SDS011;7491;57.750;11.970;2023-07-31T06:40:00;12.20;;;3.03;;
14799;SDS011;7491;57.750;11.970;2023-07-31T06:42:27;6.47;;;2.47;;
14799;SDS011;7491;57.750;11.970;2023-07-31T06:44:53;9.25;;;2.85;;
14799;SDS011;7491;57.750;11.970;2023-07-31T06:47:21;7.93;;;2.30;;
14799;SDS011;7491;57.750;11.970;2023-07-31T06:49:48;7.57;;;2.65;;
14799;SDS011;7491;57.750;11.970;2023-07-31T06:52:15;6.03;;;2.10;;
14799;SDS011;7491;57.750;11.970;2023-07-31T06:54:42;10.77;;;2.45;;
14799;SDS011;7491;57.750;11.970;2023-07-31T06:57:08;7.55;;;2.65;;
14799;SDS011;7491;57.750;11.970;2023-07-31T06:59:35;11.20;;;2.47;;
14799;SDS011;7491;57.750;11.970;2023-07-31T07:02:02;8.10;;;2.72;;
14799;SDS011;7491;57.750;11.970;2023-07-31T07:04:30;8.50;;;2.20;;
14799;SDS011;7491;57.750;11.970;2023-07-31T07:06:57;10.07;;;2.42;;
14799;SDS011;7491;57.750;11.970;2023-07-31T07:09:24;7.50;;;2.25;;
14799;SDS011;7491;57.750;11.970;2023-07-31T07:11:50;13.00;;;2.65;;
14799;SDS011;7491;57.750;11.970;2023-07-31T07:14:17;8.05;;;2.67;;
14799;SDS011;7491;57.750;11.970;2023-07-31T07:16:44;12.82;;;2.95;;
14799;SDS011;7491;57.750;11.970;2023-07-31T07:19:10;9.43;;;2.38;;
14799;SDS011;7491;57.750;11.970;2023-07-31T07:21:39;7.97;;;2.50;;
14799;SDS011;7491;57.750;11.970;2023-07-31T07:24:05;11.48;;;3.00;;
14799;SDS011;7491;57.750;11.970;2023-07-31T07:26:32;8.05;;;2.70;;
14799;SDS011;7491;57.750;11.970;2023-07-31T07:28:59;8.35;;;2.97;;
14799;SDS011;7491;57.750;11.970;2023-07-31T07:31:27;6.35;;;2.45;;
14799;SDS011;7491;57.750;11.970;2023-07-31T07:33:54;11.25;;;3.28;;
14799;SDS011;7491;57.750;11.970;2023-07-31T07:36:20;9.85;;;2.95;;
14799;SDS011;7491;57.750;11.970;2023-07-31T07:38:48;7.43;;;2.83;;
14799;SDS011;7491;57.750;11.970;2023-07-31T07:41:15;9.88;;;3.08;;
14799;SDS011;7491;57.750;11.970;2023-07-31T07:43:42;7.57;;;2.35;;
14799;SDS011;7491;57.750;11.970;2023-07-31T07:46:09;9.07;;;2.67;;
14799;SDS011;7491;57.750;11.970;2023-07-31T07:48:35;14.35;;;2.90;;
14799;SDS011;7491;57.750;11.970;2023-07-31T07:51:02;5.90;;;2.47;;
14799;SDS011;7491;57.750;11.970;2023-07-31T07:53:29;7.28;;;2.75;;
14799;SDS011;7491;57.750;11.970;2023-07-31T07:55:57;7.95;;;2.92;;
14799;SDS011;7491;57.750;11.970;2023-07-31T07:58:24;6.05;;;2.63;;
14799;SDS011;7491;57.750;11.970;2023-07-31T08:00:50;18.77;;;3.85;;
14799;SDS011;7491;57.750;11.970;2023-07-31T08:03:18;10.02;;;3.13;;
14799;SDS011;7491;57.750;11.970;2023-07-31T08:05:45;9.95;;;3.00;;
14799;SDS011;7491;57.750;11.970;2023-07-31T08:08:13;7.63;;;2.63;;
14799;SDS011;7491;57.750;11.970;2023-07-31T08:10:41;7.72;;;3.00;;
14799;SDS011;7491;57.750;11.970;2023-07-31T08:13:09;7.60;;;2.50;;
14799;SDS011;7491;57.750;11.970;2023-07-31T08:15:36;3.72;;;2.30;;
14799;SDS011;7491;57.750;11.970;2023-07-31T08:18:03;5.43;;;2.42;;
14799;SDS011;7491;57.750;11.970;2023-07-31T08:20:30;7.07;;;2.20;;
14799;SDS011;7491;57.750;11.970;2023-07-31T08:22:56;7.30;;;2.47;;
14799;SDS011;7491;57.750;11.970;2023-07-31T08:25:23;8.70;;;2.08;;
14799;SDS011;7491;57.750;11.970;2023-07-31T08:27:50;9.50;;;2.83;;
14799;SDS011;7491;57.750;11.970;2023-07-31T08:30:19;8.23;;;2.15;;
14799;SDS011;7491;57.750;11.970;2023-07-31T08:32:46;6.40;;;2.38;;
14799;SDS011;7491;57.750;11.970;2023-07-31T08:35:12;9.05;;;2.53;;
14799;SDS011;7491;57.750;11.970;2023-07-31T08:37:39;5.47;;;2.28;;
14799;SDS011;7491;57.750;11.970;2023-07-31T08:40:06;8.27;;;1.95;;
14799;SDS011;7491;57.750;11.970;2023-07-31T08:42:34;6.20;;;2.42;;
14799;SDS011;7491;57.750;11.970;2023-07-31T08:45:10;5.90;;;2.42;;
14799;SDS011;7491;57.750;11.970;2023-07-31T08:47:42;2.78;;;1.17;;
14799;SDS011;7491;57.750;11.970;2023-07-31T08:50:10;2.97;;;1.17;;
14799;SDS011;7491;57.750;11.970;2023-07-31T08:52:38;2.78;;;1.15;;
14799;SDS011;7491;57.750;11.970;2023-07-31T08:55:08;5.53;;;1.23;;
14799;SDS011;7491;57.750;11.970;2023-07-31T08:57:36;2.42;;;0.90;;
14799;SDS011;7491;57.750;11.970;2023-07-31T09:00:04;1.73;;;0.80;;
14799;SDS011;7491;57.750;11.970;2023-07-31T09:02:34;2.92;;;1.30;;
14799;SDS011;7491;57.750;11.970;2023-07-31T09:05:06;2.40;;;0.90;;
14799;SDS011;7491;57.750;11.970;2023-07-31T09:07:35;3.20;;;1.33;;
14799;SDS011;7491;57.750;11.970;2023-07-31T09:10:02;4.63;;;1.25;;
14799;SDS011;7491;57.750;11.970;2023-07-31T09:12:29;1.35;;;0.93;;
14799;SDS011;7491;57.750;11.970;2023-07-31T09:14:56;2.05;;;1.27;;
14799;SDS011;7491;57.750;11.970;2023-07-31T09:17:29;2.20;;;0.90;;
14799;SDS011;7491;57.750;11.970;2023-07-31T09:19:57;3.83;;;1.15;;
14799;SDS011;7491;57.750;11.970;2023-07-31T09:22:32;4.25;;;1.20;;
14799;SDS011;7491;57.750;11.970;2023-07-31T09:25:04;1.92;;;0.98;;
14799;SDS011;7491;57.750;11.970;2023-07-31T09:27:45;2.28;;;1.10;;
14799;SDS011;7491;57.750;11.970;2023-07-31T09:30:13;5.47;;;1.17;;
14799;SDS011;7491;57.750;11.970;2023-07-31T09:32:40;1.75;;;0.93;;
14799;SDS011;7491;57.750;11.970;2023-07-31T09:35:16;1.75;;;1.00;;
14799;SDS011;7491;57.750;11.970;2023-07-31T09:37:58;3.08;;;1.20;;
14799;SDS011;7491;57.750;11.970;2023-07-31T09:40:49;2.65;;;1.10;;
14799;SDS011;7491;57.750;11.970;2023-07-31T09:43:22;2.95;;;1.27;;
14799;SDS011;7491;57.750;11.970;2023-07-31T09:45:54;1.67;;;0.90;;
14799;SDS011;7491;57.750;11.970;2023-07-31T09:51:48;4.13;;;1.35;;
14799;SDS011;7491;57.750;11.970;2023-07-31T09:54:18;0.85;;;0.82;;
14799;SDS011;7491;57.750;11.970;2023-07-31T09:56:49;4.22;;;1.17;;
14799;SDS011;7491;57.750;11.970;2023-07-31T09:59:36;2.45;;;1.20;;
14799;SDS011;7491;57.750;11.970;2023-07-31T10:02:14;1.40;;;0.98;;
14799;SDS011;7491;57.750;11.970;2023-07-31T10:04:51;1.50;;;1.33;;
14799;SDS011;7491;57.750;11.970;2023-07-31T10:07:31;1.15;;;0.80;;
14799;SDS011;7491;57.750;11.970;2023-07-31T10:10:20;2.35;;;1.25;;
14799;SDS011;7491;57.750;11.970;2023-07-31T10:12:50;2.72;;;1.13;;
14799;SDS011;7491;57.750;11.970;2023-07-31T10:15:21;1.10;;;0.85;;
14799;SDS011;7491;57.750;11.970;2023-07-31T10:17:48;1.65;;;0.98;;
14799;SDS011;7491;57.750;11.970;2023-07-31T10:20:16;2.58;;;1.00;;
14799;SDS011;7491;57.750;11.970;2023-07-31T10:22:46;2.35;;;1.00;;
14799;SDS011;7491;57.750;11.970;2023-07-31T10:25:19;3.05;;;0.93;;
14799;SDS011;7491;57.750;11.970;2023-07-31T10:27:48;2.63;;;0.90;;
14799;SDS011;7491;57.750;11.970;2023-07-31T10:30:17;1.50;;;0.85;;
14799;SDS011;7491;57.750;11.970;2023-07-31T10:32:48;1.90;;;0.70;;
14799;SDS011;7491;57.750;11.970;2023-07-31T10:35:16;2.55;;;1.08;;
14799;SDS011;7491;57.750;11.970;2023-07-31T10:37:44;2.25;;;0.90;;
14799;SDS011;7491;57.750;11.970;2023-07-31T10:40:11;1.33;;;0.70;;
14799;SDS011;7491;57.750;11.970;2023-07-31T10:42:48;1.25;;;0.77;;
14799;SDS011;7491;57.750;11.970;2023-07-31T10:47:58;1.48;;;0.73;;
14799;SDS011;7491;57.750;11.970;2023-07-31T10:50:27;1.40;;;0.70;;
14799;SDS011;7491;57.750;11.970;2023-07-31T10:52:55;1.33;;;0.75;;
14799;SDS011;7491;57.750;11.970;2023-07-31T10:55:25;3.88;;;1.02;;
14799;SDS011;7491;57.750;11.970;2023-07-31T10:57:54;2.50;;;1.17;;
14799;SDS011;7491;57.750;11.970;2023-07-31T11:00:23;4.43;;;1.20;;
14799;SDS011;7491;57.750;11.970;2023-07-31T11:02:59;1.35;;;1.25;;
14799;SDS011;7491;57.750;11.970;2023-07-31T11:05:47;1.65;;;0.75;;
14799;SDS011;7491;57.750;11.970;2023-07-31T11:08:16;2.47;;;0.70;;
14799;SDS011;7491;57.750;11.970;2023-07-31T11:10:46;1.77;;;0.70;;
14799;SDS011;7491;57.750;11.970;2023-07-31T11:13:15;2.10;;;0.90;;
14799;SDS011;7491;57.750;11.970;2023-07-31T11:15:42;2.55;;;1.00;;
14799;SDS011;7491;57.750;11.970;2023-07-31T11:18:09;2.75;;;0.98;;
14799;SDS011;7491;57.750;11.970;2023-07-31T11:20:36;5.90;;;1.00;;
14799;SDS011;7491;57.750;11.970;2023-07-31T11:23:05;1.38;;;0.70;;
14799;SDS011;7491;57.750;11.970;2023-07-31T11:25:33;4.63;;;0.82;;
14799;SDS011;7491;57.750;11.970;2023-07-31T11:28:04;1.85;;;1.00;;
14799;SDS011;7491;57.750;11.970;2023-07-31T11:30:34;2.53;;;0.70;;
14799;SDS011;7491;57.750;11.970;2023-07-31T11:33:01;4.55;;;1.00;;
14799;SDS011;7491;57.750;11.970;2023-07-31T11:35:29;5.47;;;0.88;;
14799;SDS011;7491;57.750;11.970;2023-07-31T11:37:57;1.02;;;0.75;;
14799;SDS011;7491;57.750;11.970;2023-07-31T11:40:27;4.13;;;0.93;;
14799;SDS011;7491;57.750;11.970;2023-07-31T11:42:55;1.95;;;0.63;;
14799;SDS011;7491;57.750;11.970;2023-07-31T11:45:24;2.40;;;0.98;;
14799;SDS011;7491;57.750;11.970;2023-07-31T11:47:55;2.08;;;0.77;;
14799;SDS011;7491;57.750;11.970;2023-07-31T11:50:23;2.25;;;1.10;;
14799;SDS011;7491;57.750;11.970;2023-07-31T11:52:52;2.03;;;0.98;;
14799;SDS011;7491;57.750;11.970;2023-07-31T11:55:22;3.08;;;0.88;;
14799;SDS011;7491;57.750;11.970;2023-07-31T11:57:50;3.55;;;0.88;;
14799;SDS011;7491;57.750;11.970;2023-07-31T12:00:18;1.25;;;0.95;;
14799;SDS011;7491;57.750;11.970;2023-07-31T12:02:45;1.52;;;1.00;;
14799;SDS011;7491;57.750;11.970;2023-07-31T12:05:14;3.05;;;0.80;;
14799;SDS011;7491;57.750;11.970;2023-07-31T12:07:47;18.38;;;2.47;;
14799;SDS011;7491;57.750;11.970;2023-07-31T12:10:25;12.77;;;1.40;;
14799;SDS011;7491;57.750;11.970;2023-07-31T12:12:56;12.98;;;1.48;;
14799;SDS011;7491;57.750;11.970;2023-07-31T12:15:29;5.88;;;1.67;;
14799;SDS011;7491;57.750;11.970;2023-07-31T12:18:06;8.80;;;1.77;;
14799;SDS011;7491;57.750;11.970;2023-07-31T12:20:35;7.55;;;1.63;;
14799;SDS011;7491;57.750;11.970;2023-07-31T12:23:06;15.27;;;1.63;;
14799;SDS011;7491;57.750;11.970;2023-07-31T12:25:33;4.00;;;1.40;;
14799;SDS011;7491;57.750;11.970;2023-07-31T12:28:05;9.95;;;1.67;;
14799;SDS011;7491;57.750;11.970;2023-07-31T12:30:37;3.55;;;0.95;;
14799;SDS011;7491;57.750;11.970;2023-07-31T12:33:06;5.25;;;1.45;;
14799;SDS011;7491;57.750;11.970;2023-07-31T12:35:38;3.70;;;1.02;;
14799;SDS011;7491;57.750;11.970;2023-07-31T12:38:08;4.70;;;1.05;;
14799;SDS011;7491;57.750;11.970;2023-07-31T12:40:36;8.55;;;1.50;;
14799;SDS011;7491;57.750;11.970;2023-07-31T12:43:04;4.07;;;0.80;;
14799;SDS011;7491;57.750;11.970;2023-07-31T12:45:30;6.57;;;1.10;;
14799;SDS011;7491;57.750;11.970;2023-07-31T12:47:58;1.98;;;0.93;;
14799;SDS011;7491;57.750;11.970;2023-07-31T12:50:24;4.22;;;1.17;;
14799;SDS011;7491;57.750;11.970;2023-07-31T12:52:53;2.75;;;1.15;;
14799;SDS011;7491;57.750;11.970;2023-07-31T12:55:20;11.48;;;1.67;;
14799;SDS011;7491;57.750;11.970;2023-07-31T12:57:47;5.63;;;1.30;;
14799;SDS011;7491;57.750;11.970;2023-07-31T13:00:14;17.30;;;2.75;;
14799;SDS011;7491;57.750;11.970;2023-07-31T13:02:41;10.00;;;2.03;;
14799;SDS011;7491;57.750;11.970;2023-07-31T13:05:08;12.57;;;1.90;;
14799;SDS011;7491;57.750;11.970;2023-07-31T13:07:35;14.95;;;2.45;;
14799;SDS011;7491;57.750;11.970;2023-07-31T13:10:04;3.92;;;1.00;;
14799;SDS011;7491;57.750;11.970;2023-07-31T13:12:31;4.68;;;1.10;;
14799;SDS011;7491;57.750;11.970;2023-07-31T13:14:58;3.33;;;0.98;;
14799;SDS011;7491;57.750;11.970;2023-07-31T13:17:24;18.00;;;2.05;;
14799;SDS011;7491;57.750;11.970;2023-07-31T13:19:51;5.22;;;1.20;;
14799;SDS011;7491;57.750;11.970;2023-07-31T13:22:18;5.50;;;0.98;;
14799;SDS011;7491;57.750;11.970;2023-07-31T13:24:45;3.65;;;1.10;;
14799;SDS011;7491;57.750;11.970;2023-07-31T13:27:14;2.03;;;0.95;;
14799;SDS011;7491;57.750;11.970;2023-07-31T13:29:43;1.60;;;0.80;;
14799;SDS011;7491;57.750;11.970;2023-07-31T13:32:10;3.53;;;1.17;;
14799;SDS011;7491;57.750;11.970;2023-07-31T13:34:36;2.75;;;1.00;;
14799;SDS011;7491;57.750;11.970;2023-07-31T13:37:04;7.75;;;1.42;;
14799;SDS011;7491;57.750;11.970;2023-07-31T13:39:31;7.63;;;1.35;;
14799;SDS011;7491;57.750;11.970;2023-07-31T13:41:58;3.15;;;0.88;;
14799;SDS011;7491;57.750;11.970;2023-07-31T13:44:26;14.32;;;2.28;;
14799;SDS011;7491;57.750;11.970;2023-07-31T13:46:53;4.07;;;1.35;;
14799;SDS011;7491;57.750;11.970;2023-07-31T13:49:19;3.28;;;0.95;;
14799;SDS011;7491;57.750;11.970;2023-07-31T13:51:46;4.43;;;1.00;;
14799;SDS011;7491;57.750;11.970;2023-07-31T13:54:13;3.88;;;1.23;;
14799;SDS011;7491;57.750;11.970;2023-07-31T13:56:40;2.17;;;0.82;;
14799;SDS011;7491;57.750;11.970;2023-07-31T13:59:07;2.92;;;0.93;;
14799;SDS011;7491;57.750;11.970;2023-07-31T14:01:35;2.33;;;1.10;;
14799;SDS011;7491;57.750;11.970;2023-07-31T14:04:02;3.67;;;1.08;;
14799;SDS011;7491;57.750;11.970;2023-07-31T14:06:29;4.35;;;1.23;;
14799;SDS011;7491;57.750;11.970;2023-07-31T14:08:56;4.88;;;1.45;;
14799;SDS011;7491;57.750;11.970;2023-07-31T14:11:22;2.65;;;1.00;;
14799;SDS011;7491;57.750;11.970;2023-07-31T14:13:49;5.65;;;1.60;;
14799;SDS011;7491;57.750;11.970;2023-07-31T14:16:16;3.83;;;1.33;;
14799;SDS011;7491;57.750;11.970;2023-07-31T14:18:45;6.05;;;1.73;;
14799;SDS011;7491;57.750;11.970;2023-07-31T14:21:12;5.57;;;1.30;;
14799;SDS011;7491;57.750;11.970;2023-07-31T14:23:38;9.13;;;1.70;;
14799;SDS011;7491;57.750;11.970;2023-07-31T14:26:05;5.55;;;1.50;;
14799;SDS011;7491;57.750;11.970;2023-07-31T14:28:35;6.40;;;2.17;;
14799;SDS011;7491;57.750;11.970;2023-07-31T14:31:02;6.65;;;2.10;;
14799;SDS011;7491;57.750;11.970;2023-07-31T14:33:29;4.63;;;1.85;;
14799;SDS011;7491;57.750;11.970;2023-07-31T14:36:00;3.97;;;1.58;;
14799;SDS011;7491;57.750;11.970;2023-07-31T14:38:27;6.78;;;1.50;;
14799;SDS011;7491;57.750;11.970;2023-07-31T14:40:59;6.07;;;1.85;;
14799;SDS011;7491;57.750;11.970;2023-07-31T14:43:26;5.13;;;1.40;;
14799;SDS011;7491;57.750;11.970;2023-07-31T14:45:52;5.80;;;1.65;;
14799;SDS011;7491;57.750;11.970;2023-07-31T14:48:32;6.80;;;1.80;;
14799;SDS011;7491;57.750;11.970;2023-07-31T14:51:04;6.10;;;1.60;;
14799;SDS011;7491;57.750;11.970;2023-07-31T14:56:37;4.20;;;1.80;;
14799;SDS011;7491;57.750;11.970;2023-07-31T14:59:04;5.93;;;1.50;;
14799;SDS011;7491;57.750;11.970;2023-07-31T15:01:33;5.65;;;1.75;;
14799;SDS011;7491;57.750;11.970;2023-07-31T15:04:00;8.38;;;1.60;;
14799;SDS011;7491;57.750;11.970;2023-07-31T15:06:30;5.22;;;1.70;;